createdAt,value
2023-03-23T15:59:09.837Z,99960.31
2023-03-23T16:01:38.262Z,99969.38
2023-03-23T16:04:14.720Z,99965.69
2023-03-23T16:06:41.801Z,99964.03
2023-03-23T16:09:13.248Z,99970.66
2023-03-23T16:11:39.849Z,99963.56
2023-03-23T16:14:06.536Z,99964.41
2023-03-23T16:16:37.418Z,99961.28
2023-03-23T16:19:04.183Z,99966.13
2023-03-23T16:21:31.155Z,99949.53
2023-03-23T16:23:57.791Z,99934.47
2023-03-23T16:26:24.574Z,99931.75
2023-03-23T16:28:53.287Z,99941.56
2023-03-23T16:31:21.980Z,99941.66
2023-03-23T16:33:48.783Z,99958.13
2023-03-23T16:36:15.359Z,99969.91
2023-03-23T16:38:49.981Z,99973.34
2023-03-23T16:41:18.091Z,99980.06
2023-03-23T16:43:44.499Z,99972.97
2023-03-23T16:46:13.267Z,99967.41
2023-03-23T16:48:40.799Z,99968.13
2023-03-23T16:51:07.738Z,99981.28
2023-03-23T16:53:34.276Z,99979.09
2023-03-23T16:56:00.793Z,99988.28
2023-03-23T16:58:28.570Z,99985.53
2023-03-23T17:00:55.133Z,99992.50
2023-03-23T17:03:22.397Z,100001.53
2023-03-23T17:05:52.439Z,99995.81
2023-03-23T17:08:21.236Z,99992.00
2023-03-23T17:10:48.783Z,99989.06
2023-03-23T17:13:15.761Z,99974.34
2023-03-23T17:15:46.702Z,99955.88
2023-03-23T17:18:15.147Z,99953.91
2023-03-23T17:20:42.307Z,99963.78
2023-03-23T17:23:08.799Z,99948.97
2023-03-23T17:25:35.474Z,99958.09
2023-03-23T17:28:05.316Z,99967.72
2023-03-23T17:30:32.447Z,99968.19
2023-03-23T17:32:59.167Z,99962.16
2023-03-23T17:35:25.654Z,99960.34
2023-03-23T17:37:52.145Z,99961.59
2023-03-23T17:40:18.878Z,99957.94
2023-03-23T17:42:45.357Z,99955.50
2023-03-23T17:45:11.964Z,99963.78
2023-03-23T17:47:38.745Z,99952.81
2023-03-23T17:50:11.547Z,99937.44
2023-03-23T17:52:39.384Z,99935.38
2023-03-23T17:55:06.464Z,99924.44
2023-03-23T17:57:32.989Z,99916.94
2023-03-23T17:59:59.459Z,99906.75
2023-03-23T18:02:26.059Z,99905.31
2023-03-23T18:04:52.549Z,99920.50
2023-03-23T18:07:24.274Z,99919.38
2023-03-23T18:09:50.738Z,99918.94
2023-03-23T18:12:17.788Z,99926.78
2023-03-23T18:14:44.929Z,99932.66
2023-03-23T18:17:11.396Z,99936.06
2023-03-23T18:19:38.057Z,99950.31
2023-03-23T18:22:04.710Z,99967.84
2023-03-23T18:24:31.163Z,99961.56
2023-03-23T18:26:57.607Z,99963.94
2023-03-23T18:29:24.020Z,99978.09
2023-03-23T18:31:50.571Z,99981.22
2023-03-23T18:34:17.075Z,99981.28
2023-03-23T18:36:43.524Z,99987.19
2023-03-23T18:39:12.870Z,99992.28
2023-03-23T18:41:39.313Z,99987.97
2023-03-23T18:44:06.212Z,99998.44
2023-03-23T18:46:32.806Z,99998.75
2023-03-23T18:48:59.332Z,100000.75
2023-03-23T18:51:26.186Z,99996.28
2023-03-23T18:53:52.674Z,99991.78
2023-03-23T18:56:19.281Z,99978.53
2023-03-23T18:58:49.448Z,99985.06
2023-03-23T19:01:17.571Z,99989.88
2023-03-23T19:03:45.805Z,99989.03
2023-03-23T19:06:19.268Z,99994.25
2023-03-23T19:08:47.050Z,99991.50
2023-03-23T19:11:14.241Z,99996.38
2023-03-23T19:13:47.362Z,99993.94
2023-03-23T19:16:25.202Z,99993.22
2023-03-23T19:18:51.673Z,99997.84
2023-03-23T19:21:21.261Z,99999.69
2023-03-23T19:23:51.707Z,99999.97
2023-03-23T19:26:23.648Z,100003.78
2023-03-23T19:31:22.725Z,100000.03
2023-03-23T19:33:49.259Z,99998.38
2023-03-23T19:36:16.782Z,100003.34
2023-03-23T19:38:43.653Z,99998.59
2023-03-23T19:41:10.125Z,99988.72
2023-03-23T19:43:37.775Z,99981.09
2023-03-23T19:46:04.694Z,99985.34
2023-03-23T19:48:31.796Z,99984.81
2023-03-23T19:50:58.581Z,99985.97
2023-03-23T19:53:26.680Z,99983.69
2023-03-23T19:55:53.733Z,99983.34
2023-03-23T19:58:20.833Z,99979.75
2023-03-23T20:00:48.531Z,99980.19
2023-03-23T20:03:16.005Z,99980.28
2023-03-23T20:05:43.033Z,99982.03
2023-03-23T20:08:10.486Z,99986.59
2023-03-23T20:10:38.350Z,99980.00
2023-03-23T20:13:05.307Z,99979.81
2023-03-23T20:18:14.424Z,99980.72
2023-03-23T20:20:41.098Z,99979.38
2023-03-23T20:23:08.654Z,99973.88
2023-03-23T20:25:35.760Z,99984.94
2023-03-23T20:28:02.397Z,99988.72
2023-03-23T20:30:29.183Z,99982.72
2023-03-23T20:32:58.159Z,99988.38
2023-03-23T20:35:24.756Z,99979.75
2023-03-23T20:37:52.570Z,99982.38
2023-03-23T20:40:20.523Z,99976.84
2023-03-23T20:42:48.190Z,99970.75
2023-03-23T20:45:16.051Z,99972.88
2023-03-23T20:47:42.612Z,99972.72
2023-03-23T20:50:10.600Z,99966.28
2023-03-23T20:52:37.122Z,99963.44
2023-03-23T20:55:04.140Z,99966.63
2023-03-23T20:57:30.606Z,99966.97
2023-03-23T20:59:57.083Z,99953.06
2023-03-23T21:02:25.915Z,99952.84
2023-03-23T21:04:52.816Z,99950.47
2023-03-23T21:07:22.907Z,99955.44
2023-03-23T21:09:49.686Z,99944.00
2023-03-23T21:12:16.444Z,99948.81
2023-03-23T21:14:44.755Z,99943.13
2023-03-23T21:17:11.307Z,99953.88
2023-03-23T21:19:38.025Z,99948.22
2023-03-23T21:22:05.134Z,99952.22
2023-03-23T21:24:31.946Z,99948.22
2023-03-23T21:27:00.925Z,99952.63
2023-03-23T21:29:28.252Z,99948.50
2023-03-23T21:32:07.817Z,99950.53
2023-03-23T21:34:36.729Z,99939.78
2023-03-23T21:37:03.225Z,99937.47
2023-03-23T21:39:29.646Z,99930.41
2023-03-23T21:41:56.206Z,99924.91
2023-03-23T21:44:22.775Z,99916.78
2023-03-23T21:46:52.060Z,99921.03
2023-03-23T21:49:18.598Z,99922.78
2023-03-23T21:51:45.086Z,99928.59
2023-03-23T21:54:11.877Z,99920.50
2023-03-23T21:56:39.012Z,99928.44
2023-03-23T21:59:07.466Z,99933.44
2023-03-23T22:01:36.795Z,99939.72
2023-03-23T22:04:04.643Z,99936.72
2023-03-23T22:06:34.127Z,99939.88
2023-03-23T22:09:02.255Z,99947.34
2023-03-23T22:11:31.467Z,99941.13
2023-03-23T22:13:58.562Z,99938.88
2023-03-23T22:16:26.231Z,99939.59
2023-03-23T22:18:54.097Z,99940.13
2023-03-23T22:21:25.821Z,99932.75
2023-03-23T22:23:52.875Z,99931.81
2023-03-23T22:26:20.490Z,99923.69
2023-03-23T22:28:49.367Z,99920.94
2023-03-23T22:31:21.939Z,99929.19
2023-03-23T22:33:50.103Z,99929.19
2023-03-23T22:36:17.621Z,99919.94
2023-03-23T22:38:46.595Z,99910.78
2023-03-23T22:41:17.965Z,99914.91
2023-03-23T22:43:44.466Z,99911.81
2023-03-23T22:46:11.175Z,99908.41
2023-03-23T22:48:38.085Z,99903.56
2023-03-23T22:51:05.140Z,99893.84
2023-03-23T22:53:31.710Z,99895.53
2023-03-23T22:55:58.495Z,99886.50
2023-03-23T22:58:26.597Z,99885.47
2023-03-23T23:01:01.653Z,99870.19
2023-03-23T23:03:29.621Z,99872.16
2023-03-23T23:05:57.623Z,99871.44
2023-03-23T23:08:26.039Z,99868.31
2023-03-23T23:10:54.448Z,99872.63
2023-03-23T23:13:20.949Z,99866.78
2023-03-23T23:15:49.975Z,99869.09
2023-03-23T23:18:17.916Z,99868.78
2023-03-23T23:20:44.690Z,99859.84
2023-03-23T23:23:11.310Z,99854.06
2023-03-23T23:25:37.827Z,99853.97
2023-03-23T23:28:05.842Z,99848.91
2023-03-23T23:30:32.620Z,99847.69
2023-03-23T23:32:59.405Z,99836.75
2023-03-23T23:35:26.433Z,99837.94
2023-03-23T23:37:53.433Z,99831.66
2023-03-23T23:40:20.201Z,99830.09
2023-03-23T23:42:48.912Z,99833.13
2023-03-23T23:45:15.845Z,99826.34
2023-03-23T23:47:42.532Z,99821.91
2023-03-23T23:50:11.822Z,99823.53
2023-03-23T23:52:39.822Z,99821.63
2023-03-23T23:55:08.938Z,99817.16
2023-03-23T23:57:35.654Z,99816.78
